Historique des mesures à Cassis (13260), France
Quotidien Résumé Avril 7, 2017 Unités:  Métrique    US   Métrique/US
« Précédent (Jour)
Suivant (Jour) »
Quotidien Hebdomadaire Mensuel Annuel Période au choix
  Maximum: Minimum: Moyenne:
Température: TemperatureC °C 12.3 °C 15.3 °C
Point de rosée: DewpointC °C 6.2 °C 9 °C
Humidité: Humidity % 62 % 63 %
Vitesse du vent: 0 km/h 0 km/h 3.2 km/h
Rafales: 0 km/h - -
Vent:- - East
Pression: PressurehPa hPa 1014.8 hPa -
Précipitations: 0.0 mm    
Historical Graphs
 
 
Mesures pour : Avril 7, 2017
Heure Temperature Point de rosée Pression Vent Vitesse du vent Rafales Humidité Pluie (par heure) Conditions
TemperatureC °C DewpointC °C PressurehPa hPa Calm     Humidity % HourlyPrecipMM mm SoftwareType W/m2
00:11 14.5 °C 7.3 °C 1014.8 hPa North 3.4 km/h 7.6 km/h 62 % 0.0 mm open2300-1.11 W/m2
01:11 13.9 °C 6.9 °C 1014.8 hPa Calm     63 % 0.0 mm open2300-1.11 W/m2
03:11 12.9 °C 6.2 °C 1014.8 hPa Calm     64 % 0.0 mm open2300-1.11 W/m2
04:11 12.4 °C 6.2 °C 1015.1 hPa NNE 6.4 km/h 6.4 km/h 66 % 0.0 mm open2300-1.11 W/m2
05:11 12.4 °C 6.2 °C 1014.8 hPa Calm   2.3 km/h 66 % 0.0 mm open2300-1.11 W/m2
06:11 12.3 °C 6.6 °C 1014.8 hPa North 3.4 km/h 3.4 km/h 68 % 0.0 mm open2300-1.11 W/m2
07:11 12.9 °C 6.4 °C 1015.5 hPa North 2.9 km/h 3.4 km/h 65 % 0.0 mm open2300-1.11 W/m2
08:11 13.1 °C 6.7 °C 1015.8 hPa Calm     65 % 0.0 mm open2300-1.11 W/m2
09:11 14.4 °C 7.9 °C 1015.8 hPa Calm     65 % 0.0 mm open2300-1.11 W/m2
10:11 15.1 °C 8.8 °C 1016.1 hPa Calm   5.1 km/h 66 % 0.0 mm open2300-1.11 W/m2
11:11 17.3 °C 10.8 °C 1016.8 hPa South 9.3 km/h 13.2 km/h 66 % 0.0 mm open2300-1.11 W/m2
12:11 19.4 °C 12.2 °C 1016.8 hPa South 6.9 km/h 6.9 km/h 63 % 0.0 mm open2300-1.11 W/m2
13:11 19.9 °C 12.6 °C 1016.8 hPa Calm   5.1 km/h 63 % 0.0 mm open2300-1.11 W/m2
14:11 20.1 °C 13.1 °C 1016.8 hPa South 6.9 km/h 8.9 km/h 64 % 0.0 mm open2300-1.11 W/m2
15:11 19.9 °C 12.6 °C 1016.1 hPa South 10.9 km/h 10.9 km/h 63 % 0.0 mm open2300-1.11 W/m2
16:11 19.4 °C 12.6 °C 1015.8 hPa SSE 8 km/h 11.6 km/h 65 % 0.0 mm open2300-1.11 W/m2
17:11 18.8 °C 12.3 °C 1015.5 hPa SW 7.6 km/h 11.6 km/h 66 % 0.0 mm open2300-1.11 W/m2
18:11 18.5 °C 11.8 °C 1015.1 hPa SSE 3.4 km/h 4.7 km/h 65 % 0.0 mm open2300-1.11 W/m2
19:11 17.6 °C 11.2 °C 1015.5 hPa Calm     66 % 0.0 mm open2300-1.11 W/m2
20:11 16.8 °C 11.3 °C 1015.5 hPa Calm     70 % 0.0 mm open2300-1.11 W/m2
21:11 15.6 °C 9.5 °C 1015.5 hPa Calm   13.2 km/h 67 % 0.0 mm open2300-1.11 W/m2
22:11 14.9 °C 8.8 °C 1015.8 hPa North 2.9 km/h 2.9 km/h 67 % 0.0 mm open2300-1.11 W/m2
23:11 14.2 °C 8.6 °C 1015.8 hPa North 3.4 km/h 7.6 km/h 69 % 0.0 mm open2300-1.11 W/m2
Observations météo à CASSIS
WU-History script by Weather Underground - 1 mb